createdAt,value
2018-06-05T00:00:00.780Z,993.20
2018-06-05T00:01:07.307Z,993.16
2018-06-05T00:02:13.757Z,993.22
2018-06-05T00:03:20.222Z,993.18
2018-06-05T00:04:26.719Z,993.23
2018-06-05T00:05:34.188Z,993.18
2018-06-05T00:06:39.685Z,993.17
2018-06-05T00:07:46.138Z,993.21
2018-06-05T00:08:52.616Z,993.19
2018-06-05T00:09:59.109Z,993.19
2018-06-05T00:11:06.104Z,993.21
2018-06-05T00:12:12.055Z,993.17
2018-06-05T00:13:19.022Z,993.13
2018-06-05T00:14:25.527Z,993.19
2018-06-05T00:15:31.969Z,993.16
2018-06-05T00:16:38.574Z,993.14
2018-06-05T00:17:44.937Z,993.21
2018-06-05T00:18:51.410Z,993.19
2018-06-05T00:19:57.878Z,993.16
2018-06-05T00:21:03.891Z,993.18
2018-06-05T00:22:10.345Z,993.14
2018-06-05T00:23:17.292Z,993.16
2018-06-05T00:24:23.288Z,993.15
2018-06-05T00:25:30.256Z,993.16
2018-06-05T00:26:36.251Z,993.21
2018-06-05T00:27:42.689Z,993.19
2018-06-05T00:28:49.646Z,993.21
2018-06-05T00:29:55.638Z,993.17
2018-06-05T00:31:02.637Z,993.21
2018-06-05T00:32:08.585Z,993.23
2018-06-05T00:33:15.054Z,993.17
2018-06-05T00:34:21.531Z,993.23
2018-06-05T00:35:28.493Z,993.26
2018-06-05T00:36:34.588Z,993.19
2018-06-05T00:37:41.421Z,993.21
2018-06-05T00:38:47.393Z,993.22
2018-06-05T00:39:53.858Z,993.27
2018-06-05T00:41:00.356Z,993.20
2018-06-05T00:42:07.299Z,993.23
2018-06-05T00:43:13.777Z,993.19
2018-06-05T00:44:19.752Z,993.17
2018-06-05T00:45:26.215Z,993.19
2018-06-05T00:46:32.703Z,993.20
2018-06-05T00:47:39.638Z,993.20
2018-06-05T00:48:47.111Z,993.17
2018-06-05T00:49:52.084Z,993.18
2018-06-05T00:50:59.059Z,993.24
2018-06-05T00:52:05.508Z,993.23
2018-06-05T00:53:11.493Z,993.18
2018-06-05T00:54:18.561Z,993.20
2018-06-05T00:55:24.408Z,993.22
2018-06-05T00:56:31.407Z,993.25
2018-06-05T00:57:37.836Z,993.25
2018-06-05T00:58:45.290Z,993.25
2018-06-05T00:59:50.752Z,993.28
2018-06-05T01:00:56.728Z,993.21
2018-06-05T01:02:03.225Z,993.26
2018-06-05T01:03:09.655Z,993.20
2018-06-05T01:04:16.117Z,993.19
2018-06-05T01:05:22.599Z,993.20
2018-06-05T01:06:29.079Z,993.20
2018-06-05T01:07:35.510Z,993.15
2018-06-05T01:08:42.561Z,993.16
2018-06-05T01:09:48.934Z,993.20
2018-06-05T01:10:55.391Z,993.21
2018-06-05T01:12:01.869Z,993.24
2018-06-05T01:13:08.316Z,993.23
2018-06-05T01:14:14.770Z,993.22
2018-06-05T01:15:21.235Z,993.20
2018-06-05T01:16:27.720Z,993.19
2018-06-05T01:17:34.146Z,993.13
2018-06-05T01:18:40.104Z,993.12
2018-06-05T01:19:47.057Z,993.20
2018-06-05T01:20:53.023Z,993.15
2018-06-05T01:22:00.012Z,993.11
2018-06-05T01:23:06.547Z,993.08
2018-06-05T01:24:12.400Z,993.18
2018-06-05T01:25:19.349Z,993.13
2018-06-05T01:26:25.846Z,993.10
2018-06-05T01:27:32.258Z,993.15
2018-06-05T01:28:38.715Z,993.13
2018-06-05T01:29:44.709Z,993.17
2018-06-05T01:30:51.635Z,993.15
2018-06-05T01:31:58.121Z,993.14
2018-06-05T01:33:04.061Z,993.12
2018-06-05T01:34:11.006Z,993.10
2018-06-05T01:35:17.452Z,993.17
2018-06-05T01:36:23.441Z,993.16
2018-06-05T01:37:30.358Z,993.18
2018-06-05T01:38:36.815Z,993.10
2018-06-05T01:39:44.256Z,993.17
2018-06-05T01:40:49.224Z,993.13
2018-06-05T01:41:55.689Z,993.17
2018-06-05T01:43:02.629Z,993.15
2018-06-05T01:44:09.565Z,993.08
2018-06-05T01:45:15.516Z,993.14
2018-06-05T01:46:21.988Z,993.13
2018-06-05T01:47:27.920Z,993.15
2018-06-05T01:48:34.372Z,993.10
2018-06-05T01:49:41.324Z,993.10
2018-06-05T01:50:47.274Z,993.12
2018-06-05T01:51:53.749Z,993.11
2018-06-05T01:53:00.649Z,993.09
2018-06-05T01:54:07.115Z,993.09
2018-06-05T01:55:13.554Z,993.10
2018-06-05T01:56:19.513Z,993.09
2018-06-05T01:57:26.580Z,993.07
2018-06-05T01:58:32.416Z,993.08
2018-06-05T01:59:39.354Z,993.07
2018-06-05T02:00:45.506Z,993.11
2018-06-05T02:01:51.792Z,993.06
2018-06-05T02:02:58.214Z,993.10
2018-06-05T02:04:04.680Z,993.11
2018-06-05T02:05:11.108Z,993.10
2018-06-05T02:06:18.554Z,993.16
2018-06-05T02:07:24.581Z,993.15
2018-06-05T02:08:31.443Z,993.17
2018-06-05T02:09:36.911Z,993.19
2018-06-05T02:10:43.346Z,993.22
2018-06-05T02:11:49.818Z,993.21
2018-06-05T02:12:56.244Z,993.24
2018-06-05T02:14:03.213Z,993.23
2018-06-05T02:15:09.132Z,993.22
2018-06-05T02:16:17.065Z,993.24
2018-06-05T02:17:22.562Z,993.24
2018-06-05T02:18:28.572Z,993.27
2018-06-05T02:19:35.407Z,993.26
2018-06-05T02:20:41.353Z,993.25
2018-06-05T02:21:47.828Z,993.27
2018-06-05T02:22:54.242Z,993.29
2018-06-05T02:24:00.687Z,993.28
2018-06-05T02:25:07.641Z,993.30
2018-06-05T02:26:13.557Z,993.26
2018-06-05T02:27:20.037Z,993.23
2018-06-05T02:28:26.548Z,993.30
2018-06-05T02:29:32.897Z,993.41
2018-06-05T02:30:40.332Z,993.26
2018-06-05T02:31:46.304Z,993.27
2018-06-05T02:32:52.245Z,993.29
2018-06-05T02:33:59.148Z,993.34
2018-06-05T02:35:05.599Z,993.31
2018-06-05T02:36:12.044Z,993.28
2018-06-05T02:37:18.595Z,993.35
2018-06-05T02:38:25.211Z,993.36
2018-06-05T02:39:30.853Z,993.32
2018-06-05T02:40:37.291Z,993.37
2018-06-05T02:41:43.761Z,993.34
2018-06-05T02:42:51.192Z,993.36
2018-06-05T02:43:56.610Z,993.34
2018-06-05T02:45:03.552Z,993.29
2018-06-05T02:46:09.483Z,993.40
2018-06-05T02:47:16.441Z,993.38
2018-06-05T02:48:22.856Z,993.34
2018-06-05T02:49:29.279Z,993.39
2018-06-05T02:50:35.713Z,993.32
2018-06-05T02:51:41.653Z,993.39
2018-06-05T02:52:48.638Z,993.40
2018-06-05T02:53:54.566Z,993.27
2018-06-05T02:55:00.952Z,993.33
2018-06-05T02:56:07.387Z,993.37
2018-06-05T02:57:14.327Z,993.43
2018-06-05T02:58:20.738Z,993.41
2018-06-05T02:59:27.168Z,993.37
2018-06-05T03:00:33.612Z,993.45
2018-06-05T03:01:39.544Z,993.43
2018-06-05T03:02:45.992Z,993.43
2018-06-05T03:03:52.893Z,993.44
2018-06-05T03:04:58.878Z,993.41
2018-06-05T03:06:05.755Z,993.45
2018-06-05T03:07:11.722Z,993.45
2018-06-05T03:08:18.140Z,993.44
2018-06-05T03:09:25.056Z,993.42
2018-06-05T03:10:30.978Z,993.39
2018-06-05T03:11:37.410Z,993.41
2018-06-05T03:12:44.372Z,993.42
2018-06-05T03:13:50.787Z,993.44
2018-06-05T03:14:56.694Z,993.47
2018-06-05T03:16:03.678Z,993.43
2018-06-05T03:17:10.595Z,993.41
2018-06-05T03:18:16.005Z,993.43
2018-06-05T03:19:22.925Z,993.43
2018-06-05T03:20:28.857Z,993.48
2018-06-05T03:21:35.780Z,993.47
2018-06-05T03:22:42.235Z,993.50
2018-06-05T03:23:48.138Z,993.53
2018-06-05T03:24:56.058Z,993.56
2018-06-05T03:26:01.489Z,993.53
2018-06-05T03:27:07.945Z,993.58
2018-06-05T03:28:14.360Z,993.58
2018-06-05T03:29:20.284Z,993.63
2018-06-05T03:30:26.707Z,993.58
2018-06-05T03:31:33.156Z,993.57
2018-06-05T03:32:40.094Z,993.62
2018-06-05T03:33:46.540Z,993.62
2018-06-05T03:34:52.423Z,993.60
2018-06-05T03:35:58.857Z,993.63
2018-06-05T03:37:05.289Z,993.65
2018-06-05T03:38:11.738Z,993.65
2018-06-05T03:39:18.149Z,993.66
2018-06-05T03:40:24.588Z,993.65
2018-06-05T03:41:31.002Z,993.69
2018-06-05T03:42:37.501Z,993.68
2018-06-05T03:43:44.378Z,993.73
2018-06-05T03:44:50.805Z,993.68
2018-06-05T03:45:57.223Z,993.73
2018-06-05T03:47:03.652Z,993.69
2018-06-05T03:48:10.107Z,993.75
2018-06-05T03:49:16.023Z,993.61
2018-06-05T03:50:22.575Z,993.74
2018-06-05T03:51:29.395Z,993.75
2018-06-05T03:52:35.830Z,993.68
2018-06-05T03:53:41.928Z,993.62
2018-06-05T03:54:48.168Z,993.68
2018-06-05T03:55:54.627Z,993.72
2018-06-05T03:57:01.536Z,993.73
2018-06-05T03:58:07.486Z,993.72
2018-06-05T03:59:13.884Z,993.78
2018-06-05T04:00:20.330Z,993.88
2018-06-05T04:01:27.301Z,993.76
2018-06-05T04:02:33.712Z,993.83
2018-06-05T04:03:39.608Z,993.83
2018-06-05T04:04:46.048Z,993.79
2018-06-05T04:05:52.478Z,993.83
2018-06-05T04:06:58.907Z,993.78
2018-06-05T04:08:05.375Z,993.80
2018-06-05T04:09:11.790Z,993.80
2018-06-05T04:10:18.211Z,993.84
2018-06-05T04:11:24.658Z,993.86
2018-06-05T04:12:31.126Z,993.87
2018-06-05T04:13:38.022Z,993.92
2018-06-05T04:14:43.988Z,993.92
2018-06-05T04:15:50.403Z,993.91
2018-06-05T04:16:56.827Z,993.93
2018-06-05T04:18:03.296Z,993.87
2018-06-05T04:19:10.211Z,993.86
2018-06-05T04:20:16.161Z,993.88
2018-06-05T04:21:23.089Z,993.90
2018-06-05T04:22:29.564Z,993.92
2018-06-05T04:23:35.499Z,993.95
2018-06-05T04:24:42.402Z,993.95
2018-06-05T04:25:48.365Z,993.98
2018-06-05T04:26:54.852Z,993.92
2018-06-05T04:28:01.271Z,993.97
2018-06-05T04:29:07.676Z,993.94
2018-06-05T04:30:14.132Z,994.03
2018-06-05T04:31:21.056Z,993.93
2018-06-05T04:32:27.511Z,994.01
2018-06-05T04:33:33.482Z,994.03
2018-06-05T04:34:39.894Z,993.94
2018-06-05T04:35:46.344Z,993.89
2018-06-05T04:36:53.277Z,993.94
2018-06-05T04:37:59.253Z,993.93
2018-06-05T04:39:05.688Z,993.96
2018-06-05T04:40:12.616Z,993.92
2018-06-05T04:41:18.584Z,993.99
2018-06-05T04:42:25.521Z,993.97
2018-06-05T04:43:31.992Z,993.95
2018-06-05T04:44:37.913Z,993.97
2018-06-05T04:45:44.360Z,993.99
2018-06-05T04:46:50.800Z,994.02
2018-06-05T04:47:57.290Z,994.03
2018-06-05T04:49:04.204Z,994.02
2018-06-05T04:50:10.147Z,994.15
2018-06-05T04:51:16.604Z,994.08
2018-06-05T04:52:23.556Z,994.08
2018-06-05T04:53:29.530Z,994.08
2018-06-05T04:54:36.548Z,994.10
2018-06-05T04:55:42.911Z,994.06
2018-06-05T04:56:49.388Z,994.03
2018-06-05T04:57:55.335Z,994.11
2018-06-05T04:59:01.774Z,994.05
2018-06-05T05:00:08.741Z,994.12
2018-06-05T05:01:15.185Z,994.10
2018-06-05T05:02:21.191Z,994.11
2018-06-05T05:03:28.159Z,994.15
2018-06-05T05:04:34.069Z,994.15
2018-06-05T05:05:41.007Z,994.19
2018-06-05T05:06:46.983Z,994.18
2018-06-05T05:07:53.443Z,994.28
2018-06-05T05:09:01.415Z,994.33
2018-06-05T05:10:06.374Z,994.23
2018-06-05T05:11:12.836Z,994.19
2018-06-05T05:12:20.776Z,994.19
2018-06-05T05:13:26.265Z,994.18
2018-06-05T05:14:32.210Z,994.17
2018-06-05T05:15:38.677Z,994.19
2018-06-05T05:16:46.147Z,994.24
2018-06-05T05:17:52.112Z,994.22
2018-06-05T05:18:58.107Z,994.25
2018-06-05T05:20:05.077Z,994.30
2018-06-05T05:21:11.008Z,994.30
2018-06-05T05:22:17.490Z,994.31
2018-06-05T05:23:23.977Z,994.30
2018-06-05T05:24:30.416Z,994.32
2018-06-05T05:25:37.388Z,994.28
2018-06-05T05:26:43.862Z,994.36
2018-06-05T05:27:49.826Z,994.39
2018-06-05T05:28:56.333Z,994.31
2018-06-05T05:30:03.268Z,994.38
2018-06-05T05:31:09.738Z,994.37
2018-06-05T05:32:16.228Z,994.31
2018-06-05T05:33:22.221Z,994.33
2018-06-05T05:34:28.689Z,994.44
2018-06-05T05:35:35.640Z,994.37
2018-06-05T05:36:41.632Z,994.36
2018-06-05T05:37:48.117Z,994.31
2018-06-05T05:38:55.593Z,994.33
2018-06-05T05:40:01.057Z,994.34
2018-06-05T05:41:07.528Z,994.38
2018-06-05T05:42:14.562Z,994.33
2018-06-05T05:43:20.512Z,994.35
2018-06-05T05:44:26.974Z,994.42
2018-06-05T05:45:33.943Z,994.35
2018-06-05T05:46:39.926Z,994.34
2018-06-05T05:47:46.410Z,994.32
2018-06-05T05:48:53.413Z,994.40
2018-06-05T05:50:00.388Z,994.36
2018-06-05T05:51:05.863Z,994.46
2018-06-05T05:52:12.343Z,994.32
2018-06-05T05:53:18.869Z,994.38
2018-06-05T05:54:25.334Z,994.38
2018-06-05T05:55:31.814Z,994.37
2018-06-05T05:56:38.287Z,994.39
2018-06-05T05:57:45.288Z,994.41
2018-06-05T05:58:51.789Z,994.39
2018-06-05T05:59:57.750Z,994.43
2018-06-05T06:01:04.251Z,994.48
2018-06-05T06:02:10.742Z,994.46
2018-06-05T06:03:17.211Z,994.44
2018-06-05T06:04:23.729Z,994.47
2018-06-05T06:05:30.196Z,994.44
2018-06-05T06:06:36.705Z,994.44
2018-06-05T06:07:43.183Z,994.47
2018-06-05T06:08:49.714Z,994.41
2018-06-05T06:09:56.678Z,994.43
2018-06-05T06:11:03.172Z,994.45
2018-06-05T06:12:09.187Z,994.51
2018-06-05T06:13:16.173Z,994.48
2018-06-05T06:14:22.203Z,994.51
2018-06-05T06:15:29.173Z,994.45
2018-06-05T06:16:35.712Z,994.48
2018-06-05T06:17:41.709Z,994.48
2018-06-05T06:18:48.261Z,994.53
2018-06-05T06:19:54.726Z,994.48
2018-06-05T06:21:01.735Z,994.41
2018-06-05T06:22:07.758Z,994.47
2018-06-05T06:23:14.778Z,994.39
2018-06-05T06:24:20.798Z,994.46
2018-06-05T06:25:27.802Z,994.48
2018-06-05T06:26:33.821Z,994.51
2018-06-05T06:27:40.827Z,994.54
2018-06-05T06:28:47.882Z,994.51
2018-06-05T06:29:53.378Z,994.55
2018-06-05T06:30:59.898Z,994.50
2018-06-05T06:32:06.907Z,994.53
2018-06-05T06:33:12.936Z,994.56
2018-06-05T06:34:19.491Z,994.59
2018-06-05T06:35:26.000Z,994.62
2018-06-05T06:36:32.525Z,994.58
2018-06-05T06:37:39.549Z,994.61
2018-06-05T06:38:46.113Z,994.62
2018-06-05T06:39:52.650Z,994.60
2018-06-05T06:40:59.169Z,994.61
2018-06-05T06:42:05.735Z,994.55
2018-06-05T06:43:11.786Z,994.58
2018-06-05T06:44:18.337Z,994.51
2018-06-05T06:45:24.857Z,994.55
2018-06-05T06:46:31.407Z,994.53
2018-06-05T06:47:38.545Z,994.55
2018-06-05T06:48:44.527Z,994.46
2018-06-05T06:49:51.042Z,994.44
2018-06-05T06:50:58.087Z,994.47
2018-06-05T06:52:04.137Z,994.48
2018-06-05T06:53:10.690Z,994.42
2018-06-05T06:54:17.739Z,994.49
2018-06-05T06:55:23.777Z,994.47
2018-06-05T06:56:30.326Z,994.47
2018-06-05T06:57:37.365Z,994.44
2018-06-05T06:58:43.941Z,994.51
2018-06-05T06:59:49.952Z,994.42
2018-06-05T07:00:57.008Z,994.46
2018-06-05T07:02:03.553Z,994.41
2018-06-05T07:03:10.120Z,994.46
2018-06-05T07:04:16.233Z,994.40
2018-06-05T07:05:23.209Z,994.46
2018-06-05T07:06:29.262Z,994.52
2018-06-05T07:07:35.818Z,994.42
2018-06-05T07:08:42.883Z,994.47
2018-06-05T07:09:48.952Z,994.43
2018-06-05T07:10:55.980Z,994.50
2018-06-05T07:12:02.542Z,994.44
2018-06-05T07:13:08.607Z,994.46
2018-06-05T07:14:15.196Z,994.47
2018-06-05T07:15:21.731Z,994.39
2018-06-05T07:16:28.789Z,994.43
2018-06-05T07:17:35.354Z,994.52
2018-06-05T07:18:41.921Z,994.38
2018-06-05T07:19:48.011Z,994.35
2018-06-05T07:20:55.046Z,994.28
2018-06-05T07:22:01.319Z,994.31
2018-06-05T07:23:07.704Z,994.30
2018-06-05T07:24:14.793Z,994.32
2018-06-05T07:25:21.345Z,994.27
2018-06-05T07:26:27.922Z,994.34
2018-06-05T07:27:34.552Z,994.34
2018-06-05T07:28:40.566Z,994.35
2018-06-05T07:29:47.174Z,994.33
2018-06-05T07:30:54.239Z,994.33
2018-06-05T07:32:00.320Z,994.25
2018-06-05T07:33:06.895Z,994.31
2018-06-05T07:34:13.512Z,994.21
2018-06-05T07:35:20.573Z,994.24
2018-06-05T07:36:26.654Z,994.24
2018-06-05T07:37:33.249Z,994.22
2018-06-05T07:38:40.321Z,994.25
2018-06-05T07:39:46.949Z,994.25
2018-06-05T07:40:53.020Z,994.24
2018-06-05T07:41:59.610Z,994.22
2018-06-05T07:43:06.206Z,994.29
2018-06-05T07:44:12.822Z,994.33
2018-06-05T07:45:19.879Z,994.30
2018-06-05T07:46:25.993Z,994.25
2018-06-05T07:47:33.096Z,994.27
2018-06-05T07:48:39.203Z,994.37
2018-06-05T07:49:45.816Z,994.29
2018-06-05T07:50:52.888Z,994.32
2018-06-05T07:51:59.000Z,994.34
2018-06-05T07:53:05.599Z,994.39
2018-06-05T07:54:12.231Z,994.33
2018-06-05T07:55:18.861Z,994.28
2018-06-05T07:56:25.403Z,994.37
2018-06-05T07:57:32.030Z,994.42
2018-06-05T07:58:39.108Z,994.33
2018-06-05T07:59:45.736Z,994.47
2018-06-05T08:00:51.872Z,994.33
2018-06-05T08:01:58.978Z,994.36
2018-06-05T08:03:05.054Z,994.35
2018-06-05T08:04:12.161Z,994.32
2018-06-05T08:05:18.787Z,994.37
2018-06-05T08:06:24.881Z,994.38
2018-06-05T08:07:31.996Z,994.40
2018-06-05T08:08:38.108Z,994.41
2018-06-05T08:09:44.750Z,994.34
2018-06-05T08:10:51.861Z,994.40
2018-06-05T08:11:58.095Z,994.33
2018-06-05T08:13:05.061Z,994.42
2018-06-05T08:14:11.175Z,994.36
2018-06-05T08:15:17.829Z,994.42
2018-06-05T08:16:24.412Z,994.38
2018-06-05T08:17:31.529Z,994.43
2018-06-05T08:18:37.645Z,994.45
2018-06-05T08:19:44.776Z,994.42
2018-06-05T08:20:51.358Z,994.34
2018-06-05T08:21:58.982Z,994.43
2018-06-05T08:23:04.599Z,994.37
2018-06-05T08:24:11.228Z,994.38
2018-06-05T08:25:17.379Z,994.41
2018-06-05T08:26:23.961Z,994.40
2018-06-05T08:27:30.598Z,994.40
2018-06-05T08:28:37.712Z,994.38
2018-06-05T08:29:44.358Z,994.48
2018-06-05T08:30:50.589Z,994.34
2018-06-05T08:31:57.090Z,994.34
2018-06-05T08:33:03.722Z,994.37
2018-06-05T08:34:10.866Z,994.37
2018-06-05T08:35:17.030Z,994.31
2018-06-05T08:36:23.614Z,994.36
2018-06-05T08:37:30.244Z,994.37
2018-06-05T08:38:36.867Z,994.38
2018-06-05T08:39:43.545Z,994.41
2018-06-05T08:40:50.156Z,994.33
2018-06-05T08:41:57.267Z,994.36
2018-06-05T08:43:03.921Z,994.44
2018-06-05T08:44:10.051Z,994.38
2018-06-05T08:45:16.769Z,994.34
2018-06-05T08:46:23.335Z,994.39
2018-06-05T08:47:30.541Z,994.39
2018-06-05T08:48:36.600Z,994.40
2018-06-05T08:49:43.778Z,994.39
2018-06-05T08:50:49.907Z,994.46
2018-06-05T08:51:56.550Z,994.34
2018-06-05T08:53:03.688Z,994.46
2018-06-05T08:54:10.379Z,994.40
2018-06-05T08:55:16.533Z,994.40
2018-06-05T08:56:23.133Z,994.41
2018-06-05T08:57:30.286Z,994.38
2018-06-05T08:58:36.561Z,994.34
2018-06-05T08:59:43.608Z,994.37
2018-06-05T09:00:50.236Z,994.40
2018-06-05T09:01:56.886Z,994.43
2018-06-05T09:03:03.045Z,994.45
2018-06-05T09:04:10.202Z,994.44
2018-06-05T09:05:16.912Z,994.51
2018-06-05T09:06:23.017Z,994.46
2018-06-05T09:07:29.689Z,994.50
2018-06-05T09:08:36.351Z,994.41
2018-06-05T09:09:43.061Z,994.48
2018-06-05T09:10:49.701Z,994.43
2018-06-05T09:11:56.825Z,994.40
2018-06-05T09:13:03.486Z,994.50
2018-06-05T09:14:11.159Z,994.49
2018-06-05T09:15:16.373Z,994.44
2018-06-05T09:16:23.489Z,994.45
2018-06-05T09:17:30.214Z,994.40
2018-06-05T09:18:36.365Z,994.43
2018-06-05T09:19:43.520Z,994.52
2018-06-05T09:20:49.734Z,994.50
2018-06-05T09:21:56.393Z,994.53
2018-06-05T09:23:03.565Z,994.44
2018-06-05T09:24:10.224Z,994.46
2018-06-05T09:25:16.449Z,994.40
2018-06-05T09:26:23.591Z,994.42
2018-06-05T09:27:30.277Z,994.49
2018-06-05T09:28:36.960Z,994.40
2018-06-05T09:29:43.645Z,994.45
2018-06-05T09:30:50.360Z,994.45
2018-06-05T09:31:56.514Z,994.44
2018-06-05T09:33:03.198Z,994.44
2018-06-05T09:34:10.376Z,994.49
2018-06-05T09:35:17.107Z,994.43
2018-06-05T09:36:23.256Z,994.40
2018-06-05T09:37:29.947Z,994.45
2018-06-05T09:38:37.165Z,994.39
2018-06-05T09:39:43.828Z,994.47
2018-06-05T09:40:50.578Z,994.34
2018-06-05T09:41:57.211Z,994.38
2018-06-05T09:43:03.883Z,994.43
2018-06-05T09:44:10.612Z,994.41
2018-06-05T09:45:16.823Z,994.43
2018-06-05T09:46:23.967Z,994.44
2018-06-05T09:47:30.672Z,994.41
2018-06-05T09:48:37.360Z,994.38
2018-06-05T09:49:43.568Z,994.43
2018-06-05T09:50:50.790Z,994.44
2018-06-05T09:51:57.486Z,994.43
2018-06-05T09:53:04.693Z,994.41
2018-06-05T09:54:10.397Z,994.41
2018-06-05T09:55:18.605Z,994.39
2018-06-05T09:56:24.307Z,994.33
2018-06-05T09:57:31.031Z,994.33
2018-06-05T09:58:37.253Z,994.28
2018-06-05T09:59:44.546Z,994.35
2018-06-05T10:00:50.671Z,994.27
2018-06-05T10:01:57.870Z,994.27
2018-06-05T10:03:04.562Z,994.21
2018-06-05T10:04:11.270Z,994.25
2018-06-05T10:05:18.013Z,994.24
2018-06-05T10:06:24.702Z,994.20
2018-06-05T10:07:30.931Z,994.24
2018-06-05T10:08:38.130Z,994.26
2018-06-05T10:09:44.346Z,994.22
2018-06-05T10:10:51.097Z,994.22
2018-06-05T10:11:58.275Z,994.25
2018-06-05T10:13:04.985Z,994.20
2018-06-05T10:14:11.226Z,994.14
2018-06-05T10:15:18.598Z,994.16
2018-06-05T10:16:24.650Z,994.15
2018-06-05T10:17:31.374Z,994.18
2018-06-05T10:18:38.578Z,994.17
2018-06-05T10:19:45.389Z,994.27
2018-06-05T10:20:51.557Z,994.17
2018-06-05T10:21:58.276Z,994.16
2018-06-05T10:23:04.984Z,994.20
2018-06-05T10:24:12.232Z,994.19
2018-06-05T10:25:18.958Z,994.12
2018-06-05T10:26:25.640Z,994.17
2018-06-05T10:27:32.375Z,994.13
2018-06-05T10:28:39.083Z,994.18
2018-06-05T10:29:45.320Z,994.21
2018-06-05T10:30:52.581Z,994.15
2018-06-05T10:31:59.276Z,994.11
2018-06-05T10:33:07.001Z,994.18
2018-06-05T10:34:12.712Z,994.05
2018-06-05T10:35:19.503Z,994.10
2018-06-05T10:36:26.176Z,994.11
2018-06-05T10:37:32.896Z,994.12
2018-06-05T10:38:39.620Z,994.07
2018-06-05T10:39:45.877Z,994.07
2018-06-05T10:40:53.114Z,994.06
2018-06-05T10:41:59.820Z,994.08
2018-06-05T10:43:07.544Z,994.04
2018-06-05T10:44:12.774Z,994.14
2018-06-05T10:45:20.022Z,994.04
2018-06-05T10:46:26.270Z,994.05
2018-06-05T10:47:33.475Z,994.03
2018-06-05T10:48:40.201Z,994.00
2018-06-05T10:49:46.950Z,994.05
2018-06-05T10:50:53.691Z,994.05
2018-06-05T10:52:00.413Z,994.02
2018-06-05T10:53:06.657Z,994.02
2018-06-05T10:54:13.878Z,994.01
2018-06-05T10:55:20.120Z,993.97
2018-06-05T10:56:28.450Z,994.06
2018-06-05T10:57:33.619Z,994.04
2018-06-05T10:58:40.356Z,993.97
2018-06-05T10:59:47.630Z,994.02
2018-06-05T11:00:54.354Z,994.05
2018-06-05T11:02:01.145Z,993.95
2018-06-05T11:03:07.480Z,993.94
2018-06-05T11:04:15.814Z,993.97
2018-06-05T11:05:21.438Z,993.91
2018-06-05T11:06:28.839Z,993.93
2018-06-05T11:10:32.186Z,993.88
2018-06-05T11:11:39.434Z,993.88
2018-06-05T11:12:46.743Z,993.90
2018-06-05T11:13:54.029Z,993.86
2018-06-05T11:15:01.580Z,993.80
2018-06-05T11:16:08.825Z,993.81
2018-06-05T11:17:16.218Z,993.90
2018-06-05T11:18:23.744Z,993.79
2018-06-05T11:19:31.252Z,993.80
2018-06-05T11:20:38.732Z,993.82
2018-06-05T11:21:45.760Z,993.80
2018-06-05T11:22:53.314Z,993.72
2018-06-05T11:24:01.393Z,993.73
2018-06-05T11:25:09.016Z,993.76
2018-06-05T11:26:16.114Z,993.71
2018-06-05T11:27:24.251Z,993.68
2018-06-05T11:28:31.898Z,993.70
2018-06-05T11:29:40.589Z,993.73
2018-06-05T11:30:47.300Z,993.68
2018-06-05T11:31:55.009Z,993.68
2018-06-05T11:33:02.712Z,993.66
2018-06-05T11:34:09.933Z,993.63
2018-06-05T11:35:17.696Z,993.61
2018-06-05T11:36:25.471Z,993.68
2018-06-05T11:37:33.717Z,993.73
2018-06-05T11:38:40.987Z,993.68
2018-06-05T11:39:48.767Z,993.65
2018-06-05T11:40:57.107Z,993.63
2018-06-05T11:42:04.874Z,993.58
2018-06-05T11:43:12.694Z,993.66
2018-06-05T11:44:20.539Z,993.60
2018-06-05T11:45:28.347Z,993.54
2018-06-05T11:46:36.225Z,993.52
2018-06-05T11:47:44.030Z,993.52
2018-06-05T11:48:51.891Z,993.58
2018-06-05T11:49:59.746Z,993.46
2018-06-05T11:51:07.136Z,993.47
2018-06-05T11:52:15.492Z,993.45
2018-06-05T11:53:23.352Z,993.45
2018-06-05T11:54:31.243Z,993.45
2018-06-05T11:55:39.107Z,993.39
2018-06-05T11:56:47.066Z,993.43
2018-06-05T11:57:54.423Z,993.40
2018-06-05T11:59:02.329Z,993.43
2018-06-05T12:00:10.716Z,993.45
2018-06-05T12:01:19.660Z,993.44
2018-06-05T12:02:26.580Z,993.45
2018-06-05T12:03:34.541Z,993.38
2018-06-05T12:04:41.916Z,993.37
2018-06-05T12:05:50.368Z,993.39
2018-06-05T12:06:58.334Z,993.39
2018-06-05T12:08:05.775Z,993.42
2018-06-05T12:09:13.725Z,993.34
2018-06-05T12:10:21.678Z,993.30
2018-06-05T12:11:29.654Z,993.39
2018-06-05T12:12:37.622Z,993.34
2018-06-05T12:13:46.098Z,993.33
2018-06-05T12:14:54.126Z,993.25
2018-06-05T12:16:02.071Z,993.27
2018-06-05T12:17:10.092Z,993.24
2018-06-05T12:18:18.051Z,993.20
2018-06-05T12:19:26.043Z,993.15
2018-06-05T12:20:33.550Z,993.15
2018-06-05T12:21:43.074Z,993.22
2018-06-05T12:22:50.044Z,993.12
2018-06-05T12:23:58.062Z,993.09
2018-06-05T12:25:05.568Z,993.07
2018-06-05T12:26:14.090Z,993.10
2018-06-05T12:27:22.069Z,993.08
2018-06-05T12:28:30.061Z,993.12
2018-06-05T12:29:38.082Z,993.11
2018-06-05T12:30:46.047Z,993.07
2018-06-05T12:31:54.093Z,993.09
2018-06-05T12:33:02.064Z,993.10
2018-06-05T12:34:10.060Z,993.13
2018-06-05T12:35:18.071Z,993.10
2018-06-05T12:36:26.131Z,993.09
2018-06-05T12:37:34.108Z,993.04
2018-06-05T12:38:42.112Z,993.00
2018-06-05T12:39:50.118Z,993.00
2018-06-05T12:40:58.154Z,993.01
2018-06-05T12:42:06.197Z,993.06
2018-06-05T12:43:14.192Z,993.05
2018-06-05T12:44:22.227Z,992.99
2018-06-05T12:45:29.766Z,993.09
2018-06-05T12:46:38.321Z,992.98
2018-06-05T12:47:46.409Z,992.98
2018-06-05T12:48:55.302Z,993.10
2018-06-05T12:50:02.326Z,993.04
2018-06-05T12:51:11.336Z,992.95
2018-06-05T12:52:18.388Z,992.92
2018-06-05T12:53:25.872Z,992.98
2018-06-05T12:54:33.871Z,992.93
2018-06-05T12:55:42.371Z,992.88
2018-06-05T12:56:50.401Z,992.85
2018-06-05T12:57:58.412Z,992.86
2018-06-05T12:59:06.357Z,992.84
2018-06-05T13:00:14.351Z,992.90
2018-06-05T13:01:22.328Z,992.93
2018-06-05T13:02:31.298Z,992.88
2018-06-05T13:03:38.255Z,992.96
2018-06-05T13:04:45.722Z,992.87
2018-06-05T13:05:53.702Z,992.79
2018-06-05T13:07:02.174Z,992.78
2018-06-05T13:08:10.096Z,992.79
2018-06-05T13:09:18.069Z,992.78
2018-06-05T13:10:26.033Z,992.75
2018-06-05T13:11:34.047Z,992.72
2018-06-05T13:12:41.971Z,992.78
2018-06-05T13:13:49.932Z,992.77
2018-06-05T13:14:57.468Z,992.73
2018-06-05T13:16:05.861Z,992.72
2018-06-05T13:17:13.392Z,992.76
2018-06-05T13:18:21.812Z,992.72
2018-06-05T13:19:29.787Z,992.71
2018-06-05T13:20:38.723Z,992.76
2018-06-05T13:21:45.722Z,992.66
2018-06-05T13:22:53.829Z,992.66
2018-06-05T13:24:02.642Z,992.60
2018-06-05T13:25:09.089Z,992.62
2018-06-05T13:26:17.571Z,992.62
2018-06-05T13:27:25.080Z,992.65
2018-06-05T13:28:32.990Z,992.66
2018-06-05T13:29:41.393Z,992.63
2018-06-05T13:30:49.352Z,992.59
2018-06-05T13:31:57.384Z,992.67
2018-06-05T13:33:05.234Z,992.72
2018-06-05T13:34:13.181Z,992.60
2018-06-05T13:35:21.113Z,992.66
2018-06-05T13:36:28.534Z,992.64
2018-06-05T13:37:37.729Z,992.63
2018-06-05T13:38:44.861Z,992.69
2018-06-05T13:39:52.243Z,992.60
2018-06-05T13:41:00.309Z,992.63
2018-06-05T13:42:08.572Z,992.64
2018-06-05T13:43:16.361Z,992.63
2018-06-05T13:44:24.215Z,992.67
2018-06-05T13:45:31.549Z,992.58
2018-06-05T13:46:39.888Z,992.53
2018-06-05T13:47:47.825Z,992.60
2018-06-05T13:48:55.559Z,992.56
2018-06-05T13:50:03.373Z,992.52
2018-06-05T13:51:11.216Z,992.54
2018-06-05T13:52:18.608Z,992.58
2018-06-05T13:53:26.877Z,992.53
2018-06-05T13:54:34.230Z,992.58
2018-06-05T13:55:42.552Z,992.64